Time;durP1;ratioP1;P1;durP2;ratioP2;P2;SDS_P1;SDS_P2;PMS_P1;PMS_P2;Temp;Humidity;BMP_temperature;BMP_pressure;BME280_temperature;BME280_humidity;BME280_pressure;Samples;Min_cycle;Max_cycle;Signal;HPM_P1;HPM_P2
2021/12/09 00:01:28;;;;;;;;;;;;;;;5.11;66.93;100110.72;5052911;28;20067;-61
2021/12/09 00:03:57;;;;;;;;;;;;;;;5.10;66.85;100109.00;5051297;28;19961;-61
2021/12/09 00:06:26;;;;;;;;;;;;;;;5.13;66.97;100113.22;5053519;28;20315;-61
2021/12/09 00:08:52;;;;;;;;;;;;;;;5.13;67.05;100114.03;5052706;28;19925;-61
2021/12/09 00:11:23;;;;;;;;;;;;;;;5.13;67.04;100108.53;5051776;28;19928;-61
2021/12/09 00:13:49;;;;;;;;;;;;;;;5.12;66.85;100115.13;5050132;28;19928;-61
2021/12/09 00:16:14;;;;;;;;;;;;;;;5.09;66.97;100118.34;5050965;28;19924;-61
2021/12/09 00:18:39;;;;;;;;;;;;;;;5.09;67.01;100115.59;5051668;28;19935;-61
2021/12/09 00:21:05;;;;;;;;;;;;;;;5.08;66.90;100116.69;5052818;28;19921;-61
2021/12/09 00:23:30;;;;;;;;;;;;;;;5.08;66.76;100110.34;5052372;28;19917;-61
2021/12/09 00:25:55;;;;;;;;;;;;;;;5.07;67.09;100115.00;5051166;28;19921;-61
2021/12/09 00:28:21;;;;;;;;;;;;;;;5.05;66.74;100114.38;5052042;28;20366;-61
2021/12/09 00:30:46;;;;;;;;;;;;;;;5.00;67.00;100125.25;5049234;28;20271;-61
2021/12/09 00:33:11;;;;;;;;;;;;;;;4.93;67.20;100121.78;5051667;28;19927;-61
2021/12/09 00:35:47;;;;;;;;;;;;;;;4.93;67.06;100117.09;5052912;28;19963;-61
2021/12/09 00:38:21;;;;;;;;;;;;;;;4.99;67.43;100122.72;5051246;28;20355;-61
2021/12/09 00:40:46;;;;;;;;;;;;;;;4.98;67.01;100121.91;5053187;28;19920;-61
2021/12/09 00:43:27;;;;;;;;;;;;;;;4.99;66.92;100125.47;5052790;28;19967;-60
2021/12/09 00:45:52;;;;;;;;;;;;;;;4.97;67.02;100117.47;5051926;28;20311;-61
2021/12/09 00:48:18;;;;;;;;;;;;;;;4.96;67.29;100121.31;5048204;28;19995;-60
2021/12/09 00:50:43;;;;;;;;;;;;;;;4.97;67.11;100120.22;5052709;28;19963;-60
2021/12/09 00:53:08;;;;;;;;;;;;;;;4.95;67.12;100122.34;5049917;28;19931;-61
2021/12/09 00:55:33;;;;;;;;;;;;;;;4.98;67.03;100127.41;5052323;28;20075;-61
2021/12/09 00:57:59;;;;;;;;;;;;;;;4.92;67.19;100122.84;5052658;28;19928;-61
2021/12/09 01:00:24;;;;;;;;;;;;;;;4.89;67.30;100129.66;5051949;28;19929;-61
2021/12/09 01:02:49;;;;;;;;;;;;;;;4.88;67.42;100116.97;5052017;28;19920;-60
2021/12/09 01:05:15;;;;;;;;;;;;;;;4.87;67.15;100122.69;5049003;28;19920;-61
2021/12/09 01:07:40;;;;;;;;;;;;;;;4.89;67.02;100126.06;5052044;28;20089;-61
2021/12/09 01:10:07;;;;;;;;;;;;;;;4.89;67.13;100128.81;5052283;28;19927;-61
2021/12/09 01:12:32;;;;;;;;;;;;;;;4.88;67.58;100122.47;5052732;28;19924;-61
2021/12/09 01:14:57;;;;;;;;;;;;;;;4.89;67.11;100128.81;5051460;28;19921;-60
2021/12/09 01:17:22;;;;;;;;;;;;;;;4.85;67.27;100131.19;5051000;28;19925;-60
2021/12/09 01:19:48;;;;;;;;;;;;;;;4.81;67.17;100138.22;5053027;28;20372;-62
2021/12/09 01:22:16;;;;;;;;;;;;;;;4.77;67.40;100139.75;5040606;28;19928;-61
2021/12/09 01:24:41;;;;;;;;;;;;;;;4.75;67.80;100143.81;5055176;28;20379;-61
2021/12/09 01:27:07;;;;;;;;;;;;;;;4.75;67.65;100130.06;5059055;28;19935;-61
2021/12/09 01:29:36;;;;;;;;;;;;;;;4.77;67.52;100136.19;5056120;28;19924;-61
2021/12/09 01:32:07;;;;;;;;;;;;;;;4.77;67.42;100136.19;5055828;28;19929;-61
2021/12/09 01:34:33;;;;;;;;;;;;;;;4.75;67.51;100139.13;5055564;28;19974;-61
2021/12/09 01:36:59;;;;;;;;;;;;;;;4.81;67.57;100140.13;5051171;28;19921;-61
2021/12/09 01:39:27;;;;;;;;;;;;;;;4.80;67.22;100141.22;5056192;28;19924;-61
2021/12/09 01:41:52;;;;;;;;;;;;;;;4.79;67.21;100136.75;5055206;28;19935;-61
2021/12/09 01:44:18;;;;;;;;;;;;;;;4.78;67.49;100141.44;5055404;28;20427;-61
2021/12/09 01:46:46;;;;;;;;;;;;;;;4.72;67.42;100144.28;5054587;28;20399;-61
2021/12/09 01:49:11;;;;;;;;;;;;;;;4.71;67.62;100137.09;5054751;28;20349;-61
2021/12/09 01:51:36;;;;;;;;;;;;;;;4.73;67.45;100129.47;5054668;28;19924;-61
2021/12/09 01:54:05;;;;;;;;;;;;;;;4.71;67.47;100126.09;5055173;28;19936;-61
2021/12/09 01:56:30;;;;;;;;;;;;;;;4.70;67.23;100130.75;5050882;28;20014;-61
2021/12/09 01:58:58;;;;;;;;;;;;;;;4.70;67.51;100128.00;5055740;28;20332;-61
2021/12/09 02:01:24;;;;;;;;;;;;;;;4.70;67.46;100127.19;5053715;28;19921;-61
2021/12/09 02:03:49;;;;;;;;;;;;;;;4.69;67.49;100129.09;5054721;28;19917;-61
2021/12/09 02:06:15;;;;;;;;;;;;;;;4.67;67.77;100132.06;5055457;28;19921;-61
2021/12/09 02:08:40;;;;;;;;;;;;;;;4.67;67.69;100133.97;5055806;28;20405;-61
2021/12/09 02:11:05;;;;;;;;;;;;;;;4.69;67.57;100129.09;5053810;28;20007;-61
2021/12/09 02:13:31;;;;;;;;;;;;;;;4.68;67.47;100125.50;5051902;28;19933;-61
2021/12/09 02:15:57;;;;;;;;;;;;;;;4.69;67.44;100126.34;5054168;28;20371;-61
2021/12/09 02:18:22;;;;;;;;;;;;;;;4.66;67.65;100122.13;5054548;28;20473;-61
2021/12/09 02:21:08;;;;;;;;;;;;;;;4.68;67.56;100127.41;5054177;28;19943;-61
2021/12/09 02:23:33;;;;;;;;;;;;;;;4.65;67.07;100120.47;5054152;28;19970;-61
2021/12/09 02:25:58;;;;;;;;;;;;;;;4.63;67.21;100130.84;5053384;28;19917;-61
2021/12/09 02:28:24;;;;;;;;;;;;;;;4.62;67.32;100118.19;5054455;28;19960;-61
2021/12/09 02:30:50;;;;;;;;;;;;;;;4.64;67.46;100115.22;5048900;28;19924;-61
2021/12/09 02:33:15;;;;;;;;;;;;;;;4.63;67.37;100119.84;5055044;28;19956;-61
2021/12/09 02:35:40;;;;;;;;;;;;;;;4.61;67.80;100116.50;5054412;28;19920;-61
2021/12/09 02:38:09;;;;;;;;;;;;;;;4.61;67.44;100116.50;5051564;28;19920;-61
2021/12/09 02:40:34;;;;;;;;;;;;;;;4.59;67.63;100110.38;5055327;28;19960;-61
2021/12/09 02:43:00;;;;;;;;;;;;;;;4.59;67.49;100121.38;5053635;28;19960;-61
2021/12/09 02:45:25;;;;;;;;;;;;;;;4.57;67.33;100115.28;5053867;28;19923;-61
2021/12/09 02:47:53;;;;;;;;;;;;;;;4.55;67.29;100122.91;5038425;28;19921;-61
2021/12/09 02:50:21;;;;;;;;;;;;;;;4.54;67.79;100124.00;5054399;28;19960;-61
2021/12/09 02:52:47;;;;;;;;;;;;;;;4.50;67.75;100131.03;5053455;28;19924;-61
2021/12/09 02:55:13;;;;;;;;;;;;;;;4.51;67.84;100129.09;5052649;28;20279;-61
2021/12/09 02:57:38;;;;;;;;;;;;;;;4.48;68.11;100130.44;5039738;28;19996;-61
2021/12/09 03:00:04;;;;;;;;;;;;;;;4.48;67.33;100130.44;5025734;28;19921;-61
2021/12/09 03:02:30;;;;;;;;;;;;;;;4.48;67.77;100138.69;5035275;28;19924;-61
2021/12/09 03:04:58;;;;;;;;;;;;;;;4.48;67.82;100133.19;5035779;28;20360;-61
2021/12/09 03:07:31;;;;;;;;;;;;;;;4.47;67.73;100141.63;5020107;28;19921;-61
2021/12/09 03:09:59;;;;;;;;;;;;;;;4.45;67.90;100135.53;5034505;28;19921;-61
2021/12/09 03:12:34;;;;;;;;;;;;;;;4.42;67.74;100151.41;5032968;28;19936;-61
2021/12/09 03:15:04;;;;;;;;;;;;;;;4.43;67.88;100144.00;5033622;28;19928;-61
2021/12/09 03:17:29;;;;;;;;;;;;;;;4.39;67.59;100138.13;5033353;28;20035;-61
2021/12/09 03:20:00;;;;;;;;;;;;;;;4.40;67.65;100149.94;5033079;28;20104;-60
2021/12/09 03:22:25;;;;;;;;;;;;;;;4.41;67.57;100147.00;5030144;28;19922;-61
2021/12/09 03:24:51;;;;;;;;;;;;;;;4.39;67.56;100154.59;5014700;28;19922;-60
2021/12/09 03:27:16;;;;;;;;;;;;;;;4.42;67.51;100167.06;5028145;28;19968;-60
2021/12/09 03:29:41;;;;;;;;;;;;;;;4.43;67.47;100163.25;5034115;28;19921;-60
2021/12/09 03:32:08;;;;;;;;;;;;;;;4.43;67.64;100165.97;5033364;28;19924;-60
2021/12/09 03:34:35;;;;;;;;;;;;;;;4.43;67.62;100163.25;5033175;28;19974;-60
2021/12/09 03:37:01;;;;;;;;;;;;;;;4.40;67.68;100152.69;5032717;28;19921;-61
2021/12/09 03:39:28;;;;;;;;;;;;;;;4.36;67.42;100154.22;5032786;28;19932;-61
2021/12/09 03:41:54;;;;;;;;;;;;;;;4.33;67.66;100154.72;5028552;28;19928;-61
2021/12/09 03:44:20;;;;;;;;;;;;;;;4.34;67.79;100165.47;5039852;28;19928;-61
2021/12/09 03:46:45;;;;;;;;;;;;;;;4.34;67.67;100167.38;5044104;28;19921;-61
2021/12/09 03:49:10;;;;;;;;;;;;;;;4.31;67.86;100170.56;5044803;28;19924;-61
2021/12/09 03:51:36;;;;;;;;;;;;;;;4.26;67.85;100173.16;5032293;28;19921;-61
2021/12/09 03:54:03;;;;;;;;;;;;;;;4.22;68.15;100172.78;5034044;28;20015;-61
2021/12/09 03:56:28;;;;;;;;;;;;;;;4.22;68.15;100181.03;5038773;28;19943;-61
2021/12/09 03:58:53;;;;;;;;;;;;;;;4.23;68.04;100177.19;5048556;28;19921;-61
2021/12/09 04:01:38;;;;;;;;;;;;;;;4.26;67.87;100181.41;5052838;28;20284;-61
2021/12/09 04:04:04;;;;;;;;;;;;;;;4.27;68.30;100183.09;5013808;28;19921;-61
2021/12/09 04:09:19;;;;;;;;;;;;;;;4.27;68.11;100170.19;5040947;28;19921;-61
2021/12/09 04:11:45;;;;;;;;;;;;;;;4.26;67.77;100153.94;5053380;28;19920;-61
2021/12/09 04:14:10;;;;;;;;;;;;;;;4.26;67.79;100163.03;5053524;28;19935;-61
2021/12/09 04:16:36;;;;;;;;;;;;;;;4.27;67.77;100164.69;5048827;28;19928;-61
2021/12/09 04:19:02;;;;;;;;;;;;;;;4.27;67.74;100172.09;5052113;28;20019;-61
2021/12/09 04:21:28;;;;;;;;;;;;;;;4.24;67.93;100169.81;5052373;28;19921;-61
2021/12/09 04:23:53;;;;;;;;;;;;;;;4.23;68.01;100166.22;5050148;28;19921;-61
2021/12/09 04:26:18;;;;;;;;;;;;;;;4.24;67.89;100172.53;5051489;28;20015;-61
2021/12/09 04:28:45;;;;;;;;;;;;;;;4.24;67.97;100172.53;5051292;28;19928;-61
2021/12/09 04:31:10;;;;;;;;;;;;;;;4.22;67.93;100177.44;5060307;28;19962;-61
2021/12/09 04:33:35;;;;;;;;;;;;;;;4.19;68.06;100182.31;5073952;28;19920;-61
2021/12/09 04:36:01;;;;;;;;;;;;;;;4.17;67.69;100173.47;5050061;28;20070;-61
2021/12/09 04:38:26;;;;;;;;;;;;;;;4.17;67.72;100178.97;5052003;28;20287;-61
2021/12/09 04:40:52;;;;;;;;;;;;;;;4.17;67.99;100187.22;5053365;28;19936;-61
2021/12/09 04:43:17;;;;;;;;;;;;;;;4.17;68.00;100195.44;5051982;28;20015;-61
2021/12/09 04:45:42;;;;;;;;;;;;;;;4.18;67.96;100196.28;5051134;28;19927;-61
2021/12/09 04:48:13;;;;;;;;;;;;;;;4.20;67.95;100202.38;5052574;28;19921;-61
2021/12/09 04:50:39;;;;;;;;;;;;;;;4.20;68.03;100185.91;5052443;28;19995;-61
2021/12/09 04:53:05;;;;;;;;;;;;;;;4.21;67.68;100198.59;5047862;28;20032;-61
2021/12/09 04:55:30;;;;;;;;;;;;;;;4.17;67.85;100186.38;5055648;28;19929;-61
2021/12/09 04:57:55;;;;;;;;;;;;;;;4.17;67.82;100191.88;5046343;28;19920;-61
2021/12/09 05:00:22;;;;;;;;;;;;;;;4.17;68.23;100194.63;5050486;28;19951;-62
2021/12/09 05:03:02;;;;;;;;;;;;;;;4.16;67.84;100196.50;5049575;28;20414;-60
2021/12/09 05:05:32;;;;;;;;;;;;;;;4.15;67.64;100183.84;5043171;28;19921;-60
2021/12/09 05:08:01;;;;;;;;;;;;;;;4.16;67.93;100191.00;5036276;28;20024;-60
2021/12/09 05:10:26;;;;;;;;;;;;;;;4.17;68.11;100187.22;5024384;28;19932;-60
2021/12/09 05:12:51;;;;;;;;;;;;;;;4.16;68.06;100201.97;5035433;28;19925;-61
2021/12/09 05:15:16;;;;;;;;;;;;;;;4.17;67.78;100205.59;5035373;28;19975;-61
2021/12/09 05:17:41;;;;;;;;;;;;;;;4.15;68.19;100207.72;5044116;28;19921;-61
2021/12/09 05:20:07;;;;;;;;;;;;;;;4.13;67.99;100207.97;5044823;28;19925;-61
2021/12/09 05:22:32;;;;;;;;;;;;;;;4.08;67.90;100209.69;5033909;28;20015;-61
2021/12/09 05:24:57;;;;;;;;;;;;;;;4.06;67.94;100209.09;5036452;28;19917;-61
2021/12/09 05:27:22;;;;;;;;;;;;;;;3.97;68.11;100208.53;5030138;28;19922;-61
2021/12/09 05:30:03;;;;;;;;;;;;;;;3.96;68.16;100206.84;5036840;28;19921;-61
2021/12/09 05:32:31;;;;;;;;;;;;;;;3.97;68.22;100204.94;5036554;28;20006;-61
2021/12/09 05:34:56;;;;;;;;;;;;;;;3.97;67.92;100203.06;5030591;28;20388;-61
2021/12/09 05:37:23;;;;;;;;;;;;;;;3.96;68.14;100206.00;5035368;28;19975;-61
2021/12/09 05:39:49;;;;;;;;;;;;;;;3.96;68.34;100197.75;5036017;28;19932;-61
2021/12/09 05:42:24;;;;;;;;;;;;;;;3.96;68.41;100212.34;5034861;28;19921;-60
2021/12/09 05:44:50;;;;;;;;;;;;;;;3.98;68.27;100212.13;5030263;28;19999;-61
2021/12/09 05:47:15;;;;;;;;;;;;;;;3.94;68.04;100217.22;5034128;28;20010;-61
2021/12/09 05:49:43;;;;;;;;;;;;;;;3.94;68.35;100214.47;5030449;28;20299;-61
2021/12/09 05:52:08;;;;;;;;;;;;;;;3.95;68.31;100227.13;5035024;28;19925;-61
2021/12/09 05:54:36;;;;;;;;;;;;;;;3.94;68.00;100218.06;5034843;28;19947;-61
2021/12/09 05:57:02;;;;;;;;;;;;;;;3.94;68.02;100219.97;5045207;28;19971;-61
2021/12/09 05:59:31;;;;;;;;;;;;;;;3.92;68.40;100219.34;5053959;28;20368;-61
2021/12/09 06:01:57;;;;;;;;;;;;;;;3.91;68.76;100217.66;5047735;28;19921;-61
2021/12/09 06:04:22;;;;;;;;;;;;;;;3.92;68.02;100222.09;5055294;28;20287;-61
2021/12/09 06:06:51;;;;;;;;;;;;;;;3.90;68.59;100221.50;5052745;28;19925;-61
2021/12/09 06:09:16;;;;;;;;;;;;;;;3.91;67.95;100223.16;5053293;28;19921;-61
2021/12/09 06:11:45;;;;;;;;;;;;;;;3.92;68.37;100219.34;5052976;28;20418;-61
2021/12/09 06:14:30;;;;;;;;;;;;;;;3.94;68.15;100223.56;5051821;28;19921;-61
2021/12/09 06:16:56;;;;;;;;;;;;;;;3.92;68.53;100228.41;5039385;28;19921;-61
2021/12/09 06:19:21;;;;;;;;;;;;;;;3.92;68.58;100219.34;5053511;28;20016;-61
2021/12/09 06:21:46;;;;;;;;;;;;;;;3.92;68.13;100216.59;5053039;28;19925;-60
2021/12/09 06:24:21;;;;;;;;;;;;;;;3.90;68.20;100218.75;5048696;28;20379;-61
2021/12/09 06:26:46;;;;;;;;;;;;;;;3.85;68.23;100216.69;5049860;28;19924;-60
2021/12/09 06:29:11;;;;;;;;;;;;;;;3.85;68.05;100224.03;5052030;28;19920;-60
2021/12/09 06:31:36;;;;;;;;;;;;;;;3.87;68.24;100214.53;5049643;28;20006;-60
2021/12/09 06:34:02;;;;;;;;;;;;;;;3.86;68.39;100220.25;5050878;28;20252;-60
2021/12/09 06:36:27;;;;;;;;;;;;;;;3.86;68.07;100229.34;5052584;28;19928;-60
2021/12/09 06:38:52;;;;;;;;;;;;;;;3.86;68.38;100225.75;5053446;28;19921;-60
2021/12/09 06:41:17;;;;;;;;;;;;;;;3.88;68.43;100227.19;5050811;28;20368;-61
2021/12/09 06:43:43;;;;;;;;;;;;;;;3.85;68.09;100227.66;5052183;28;19921;-61
2021/12/09 06:46:09;;;;;;;;;;;;;;;3.81;68.34;100236.53;5052495;28;19928;-61
2021/12/09 06:48:35;;;;;;;;;;;;;;;3.78;68.34;100237.00;5050730;28;19956;-61
2021/12/09 06:51:03;;;;;;;;;;;;;;;3.78;68.16;100237.00;5052267;28;20445;-61
2021/12/09 06:53:31;;;;;;;;;;;;;;;3.79;68.63;100233.19;5052008;28;20410;-61
2021/12/09 06:55:57;;;;;;;;;;;;;;;3.81;68.65;100236.53;5049499;28;19921;-60
2021/12/09 06:58:22;;;;;;;;;;;;;;;3.77;68.42;100235.31;5044687;28;20387;-61
2021/12/09 07:00:48;;;;;;;;;;;;;;;3.79;68.63;100235.94;5050766;28;19939;-60
2021/12/09 07:03:16;;;;;;;;;;;;;;;3.77;68.46;100238.88;5050171;28;20253;-61
2021/12/09 07:05:44;;;;;;;;;;;;;;;3.78;68.73;100240.59;5048895;28;20399;-61
2021/12/09 07:08:12;;;;;;;;;;;;;;;3.80;68.62;100251.34;5050173;28;19921;-62
2021/12/09 07:10:38;;;;;;;;;;;;;;;3.79;68.38;100250.50;5050204;28;19952;-62
2021/12/09 07:13:05;;;;;;;;;;;;;;;3.81;68.21;100242.03;5045351;28;19921;-60
2021/12/09 07:15:30;;;;;;;;;;;;;;;3.78;68.52;100250.75;5051797;28;19927;-61
2021/12/09 07:17:55;;;;;;;;;;;;;;;3.78;68.61;100250.75;5045607;28;19925;-61
2021/12/09 07:20:23;;;;;;;;;;;;;;;3.77;68.23;100249.88;5044795;28;20437;-61
2021/12/09 07:22:48;;;;;;;;;;;;;;;3.79;68.76;100249.66;5048849;28;19924;-60
2021/12/09 07:25:14;;;;;;;;;;;;;;;3.78;68.11;100254.31;5046488;28;19966;-60
2021/12/09 07:27:39;;;;;;;;;;;;;;;3.77;68.22;100249.03;5048662;28;19931;-60
2021/12/09 07:30:06;;;;;;;;;;;;;;;3.70;68.92;100246.34;5041859;28;19987;-60
2021/12/09 07:32:32;;;;;;;;;;;;;;;3.66;68.34;100245.13;5048526;28;20023;-61
2021/12/09 07:34:57;;;;;;;;;;;;;;;3.65;68.78;100238.78;5049500;28;20011;-61
2021/12/09 07:37:22;;;;;;;;;;;;;;;3.66;68.68;100251.44;5044776;28;19974;-62
2021/12/09 07:39:48;;;;;;;;;;;;;;;3.69;68.34;100250.16;5052346;28;19939;-60
2021/12/09 07:42:15;;;;;;;;;;;;;;;3.67;68.49;100258.63;5050307;28;20379;-61
2021/12/09 07:44:40;;;;;;;;;;;;;;;3.66;68.78;100250.63;5050909;28;19936;-62
2021/12/09 07:47:05;;;;;;;;;;;;;;;3.63;69.02;100251.06;5045756;28;21317;-60
2021/12/09 07:49:30;;;;;;;;;;;;;;;3.63;68.55;100248.31;5049070;28;20003;-60
2021/12/09 07:52:04;;;;;;;;;;;;;;;3.62;69.28;100263.94;5048146;28;19974;-62
2021/12/09 07:54:29;;;;;;;;;;;;;;;3.65;69.04;100254.41;5044977;28;20443;-62
2021/12/09 07:56:54;;;;;;;;;;;;;;;3.66;68.62;100254.19;5051374;28;19970;-62
2021/12/09 07:59:19;;;;;;;;;;;;;;;3.69;68.76;100262.00;5041368;28;19930;-62
2021/12/09 08:01:45;;;;;;;;;;;;;;;3.70;68.56;100257.34;5036676;28;20362;-62
2021/12/09 08:04:10;;;;;;;;;;;;;;;3.71;68.82;100255.44;5033633;28;20367;-62
2021/12/09 08:06:36;;;;;;;;;;;;;;;3.71;68.91;100267.25;5030185;28;19921;-61
2021/12/09 08:09:04;;;;;;;;;;;;;;;3.71;68.93;100266.41;5030436;28;20265;-61
2021/12/09 08:11:30;;;;;;;;;;;;;;;3.71;68.78;100270.00;5036012;28;19948;-61
2021/12/09 08:13:55;;;;;;;;;;;;;;;3.73;68.92;100281.56;5031720;28;20348;-61
2021/12/09 08:16:21;;;;;;;;;;;;;;;3.76;68.89;100280.28;5031828;28;19974;-62
2021/12/09 08:18:56;;;;;;;;;;;;;;;3.76;68.37;100291.28;5027115;28;19921;-62
2021/12/09 08:21:25;;;;;;;;;;;;;;;3.79;68.90;100290.84;5029418;28;20003;-60
2021/12/09 08:23:51;;;;;;;;;;;;;;;3.75;68.97;100287.69;5032339;28;19928;-60
2021/12/09 08:26:17;;;;;;;;;;;;;;;3.73;68.75;100284.31;5025423;28;19921;-61
2021/12/09 08:28:42;;;;;;;;;;;;;;;3.76;68.64;100280.28;5030111;28;19974;-61
2021/12/09 08:31:07;;;;;;;;;;;;;;;3.76;68.99;100283.88;5031336;28;19921;-61
2021/12/09 08:33:32;;;;;;;;;;;;;;;3.76;69.08;100277.56;5032089;28;20301;-60
2021/12/09 08:35:57;;;;;;;;;;;;;;;3.76;68.75;100278.38;5031672;28;19957;-61
2021/12/09 08:38:23;;;;;;;;;;;;;;;3.77;69.30;100274.56;5031193;28;19921;-60
2021/12/09 08:40:49;;;;;;;;;;;;;;;3.75;69.29;100275.88;5031119;28;19991;-59
2021/12/09 08:43:15;;;;;;;;;;;;;;;3.76;69.09;100280.28;5029651;28;19921;-59
2021/12/09 08:45:40;;;;;;;;;;;;;;;3.77;69.48;100279.22;5030565;28;19930;-60
2021/12/09 08:48:12;;;;;;;;;;;;;;;3.76;69.42;100283.88;5036924;28;19920;-59
2021/12/09 08:50:38;;;;;;;;;;;;;;;3.75;69.56;100290.44;5033360;28;19921;-59
2021/12/09 08:53:05;;;;;;;;;;;;;;;3.77;69.61;100290.22;5035883;28;19937;-59
2021/12/09 08:55:52;;;;;;;;;;;;;;;3.81;69.25;100292.31;5034118;28;19967;-59
2021/12/09 08:58:16;;;;;;;;;;;;;;;3.85;69.73;100298.16;5028007;28;19928;-60
2021/12/09 09:00:44;;;;;;;;;;;;;;;3.87;69.67;100287.81;5030826;28;19921;-59
2021/12/09 09:03:09;;;;;;;;;;;;;;;3.88;69.42;100289.50;5029845;28;19921;-59
2021/12/09 09:05:35;;;;;;;;;;;;;;;3.86;69.37;100286.97;5029559;28;20280;-59
2021/12/09 09:08:01;;;;;;;;;;;;;;;3.89;69.86;100292.03;5028639;28;19921;-60
2021/12/09 09:10:28;;;;;;;;;;;;;;;3.94;69.78;100292.19;5030842;28;19917;-59
2021/12/09 09:12:56;;;;;;;;;;;;;;;3.85;69.59;100276.19;5030103;28;19924;-59
2021/12/09 09:15:22;;;;;;;;;;;;;;;3.87;69.82;100285.91;5031705;28;19925;-59
2021/12/09 09:17:51;;;;;;;;;;;;;;;3.86;70.74;100288.88;5024570;28;19960;-59
2021/12/09 09:20:18;;;;;;;;;;;;;;;3.86;70.02;100283.41;5021993;28;20331;-59
2021/12/09 09:22:43;;;;;;;;;;;;;;;3.89;69.63;100289.28;5029123;28;20384;-59
2021/12/09 09:25:14;;;;;;;;;;;;;;;3.93;69.75;100290.53;5026090;28;20032;-59
2021/12/09 09:27:40;;;;;;;;;;;;;;;3.97;69.69;100295.53;5031662;28;19956;-59
2021/12/09 09:30:06;;;;;;;;;;;;;;;3.99;69.94;100288.78;5027937;28;19956;-60
2021/12/09 09:32:31;;;;;;;;;;;;;;;3.98;69.97;100295.34;5031643;28;19947;-59
2021/12/09 09:34:56;;;;;;;;;;;;;;;4.03;69.71;100297.41;5029387;28;19921;-59
2021/12/09 09:37:22;;;;;;;;;;;;;;;3.98;70.02;100292.59;5029067;28;19929;-59
2021/12/09 09:39:47;;;;;;;;;;;;;;;3.99;70.14;100291.53;5025902;28;19922;-59
2021/12/09 09:44:47;;;;;;;;;;;;;;;4.01;70.14;100299.53;5034470;28;19921;-60
2021/12/09 09:47:13;;;;;;;;;;;;;;;4.02;70.42;100296.56;5031793;28;20082;-60
2021/12/09 09:49:38;;;;;;;;;;;;;;;4.06;70.50;100306.03;5034606;28;20419;-59
2021/12/09 09:52:05;;;;;;;;;;;;;;;4.09;70.42;100310.25;5026931;28;19913;-59
2021/12/09 09:54:30;;;;;;;;;;;;;;;4.13;70.41;100315.06;5033931;28;19921;-59
2021/12/09 09:56:56;;;;;;;;;;;;;;;4.16;70.30;100319.25;5044446;28;20273;-59
2021/12/09 09:59:21;;;;;;;;;;;;;;;4.16;70.02;100317.34;5053635;28;19936;-59
2021/12/09 10:01:49;;;;;;;;;;;;;;;4.21;70.49;100307.63;5051116;28;19925;-59
2021/12/09 10:04:21;;;;;;;;;;;;;;;4.21;70.12;100322.19;5054364;28;19966;-59
2021/12/09 10:06:47;;;;;;;;;;;;;;;4.19;70.02;100316.91;5054317;28;20796;-59
2021/12/09 10:09:12;;;;;;;;;;;;;;;4.18;69.90;100315.22;5053991;28;19971;-59
2021/12/09 10:11:38;;;;;;;;;;;;;;;4.23;70.33;100308.22;5053805;28;19921;-59
2021/12/09 10:14:11;;;;;;;;;;;;;;;4.24;70.31;100307.16;5053183;28;19928;-59
2021/12/09 10:16:38;;;;;;;;;;;;;;;4.27;70.47;100309.44;5048614;28;19927;-60
2021/12/09 10:19:11;;;;;;;;;;;;;;;4.29;70.57;100305.44;5054267;28;19921;-60
2021/12/09 10:21:37;;;;;;;;;;;;;;;4.32;70.48;100298.63;5050608;28;20481;-60
2021/12/09 10:24:03;;;;;;;;;;;;;;;4.35;70.87;100298.16;5054632;28;19917;-60
2021/12/09 10:26:39;;;;;;;;;;;;;;;4.37;70.12;100287.81;5053904;28;20371;-60
2021/12/09 10:29:28;;;;;;;;;;;;;;;4.41;70.62;100289.88;5052687;28;19928;-60
2021/12/09 10:31:57;;;;;;;;;;;;;;;4.45;70.04;100287.50;5053823;28;19966;-59
2021/12/09 10:34:36;;;;;;;;;;;;;;;4.43;70.75;100282.22;5052465;28;19920;-59
2021/12/09 10:37:06;;;;;;;;;;;;;;;4.41;70.88;100283.53;5052005;28;19959;-59
2021/12/09 10:39:31;;;;;;;;;;;;;;;4.42;71.18;100282.47;5043808;28;20015;-60
2021/12/09 10:41:58;;;;;;;;;;;;;;;4.43;70.96;100282.22;5052455;28;20023;-60
2021/12/09 10:44:35;;;;;;;;;;;;;;;4.48;70.71;100294.44;5052335;28;19928;-60
2021/12/09 10:47:15;;;;;;;;;;;;;;;4.50;71.06;100290.41;5052800;28;19920;-60
2021/12/09 10:49:55;;;;;;;;;;;;;;;4.49;71.04;100294.25;5052268;28;19925;-60
2021/12/09 10:52:36;;;;;;;;;;;;;;;4.50;70.94;100295.91;5048510;28;19921;-60
2021/12/09 10:55:05;;;;;;;;;;;;;;;4.54;70.64;100299.06;5038613;28;19928;-60
2021/12/09 10:57:31;;;;;;;;;;;;;;;4.55;70.71;100298.81;5049371;28;19921;-60
2021/12/09 10:59:57;;;;;;;;;;;;;;;4.54;70.96;100296.31;5048011;28;19964;-61
2021/12/09 11:02:22;;;;;;;;;;;;;;;4.61;71.68;100291.59;5050636;28;19952;-61
2021/12/09 11:04:57;;;;;;;;;;;;;;;4.67;70.99;100301.66;5053420;28;20416;-61
2021/12/09 11:07:29;;;;;;;;;;;;;;;4.69;70.96;100296.78;5052225;28;19925;-60
2021/12/09 11:10:13;;;;;;;;;;;;;;;4.72;70.57;100290.84;5047742;28;19921;-61
2021/12/09 11:12:56;;;;;;;;;;;;;;;4.75;70.65;100281.25;5038850;28;19936;-66
2021/12/09 11:15:41;;;;;;;;;;;;;;;4.77;70.75;100273.63;5050254;28;19921;-59
2021/12/09 11:18:25;;;;;;;;;;;;;;;4.79;70.94;100285.22;5046518;28;20291;-59
2021/12/09 11:20:50;;;;;;;;;;;;;;;4.77;70.95;100276.38;5050772;28;19920;-60
2021/12/09 11:23:30;;;;;;;;;;;;;;;4.74;70.89;100269.44;5049129;28;19928;-60
2021/12/09 11:25:59;;;;;;;;;;;;;;;4.73;70.96;100261.44;5049571;28;20024;-60
2021/12/09 11:28:26;;;;;;;;;;;;;;;4.74;70.95;100263.94;5041987;28;19921;-60
2021/12/09 11:31:13;;;;;;;;;;;;;;;4.74;71.53;100255.69;5044241;28;19921;-59
2021/12/09 11:33:43;;;;;;;;;;;;;;;4.75;71.11;100264.75;5050435;28;19927;-60
2021/12/09 11:36:15;;;;;;;;;;;;;;;4.81;71.03;100261.94;5044025;28;19935;-59
2021/12/09 11:39:05;;;;;;;;;;;;;;;4.83;70.99;100262.53;5051358;28;19924;-59
2021/12/09 11:41:33;;;;;;;;;;;;;;;4.85;70.58;100260.41;5047986;28;19927;-59
2021/12/09 11:43:58;;;;;;;;;;;;;;;4.85;70.68;100271.41;5045420;28;20042;-59
2021/12/09 11:46:23;;;;;;;;;;;;;;;4.83;70.86;100261.72;5050567;28;20016;-59
2021/12/09 11:48:48;;;;;;;;;;;;;;;4.81;71.37;100253.69;5052050;28;19923;-61
2021/12/09 11:51:14;;;;;;;;;;;;;;;4.80;71.10;100263.03;5051439;28;20410;-60
2021/12/09 11:53:43;;;;;;;;;;;;;;;4.82;71.11;100260.03;5045924;28;19920;-60
2021/12/09 11:56:33;;;;;;;;;;;;;;;4.80;71.11;100256.69;5048835;28;19928;-61
2021/12/09 12:07:16;;;;;;;;;;;;;;;4.87;70.94;100251.94;5031219;28;19928;-60
2021/12/09 12:15:34;;;;;;;;;;;;;;;4.80;71.69;100238.28;5029713;28;20451;-60
2021/12/09 12:29:42;;;;;;;;;;;;;;;4.91;72.26;100225.66;5028128;28;20330;-60
2021/12/09 12:32:26;;;;;;;;;;;;;;;4.90;71.79;100218.47;5029382;28;19925;-58
2021/12/09 12:35:42;;;;;;;;;;;;;;;4.89;72.15;100219.56;5030394;28;20003;-59
2021/12/09 12:40:50;;;;;;;;;;;;;;;4.89;72.41;100234.13;5031637;28;19984;-59
2021/12/09 12:43:31;;;;;;;;;;;;;;;4.92;71.95;100230.09;5029868;28;20350;-59
2021/12/09 12:49:17;;;;;;;;;;;;;;;5.01;71.89;100242.44;5023924;28;19932;-59
2021/12/09 12:51:51;;;;;;;;;;;;;;;5.05;71.69;100231.81;5031754;28;20366;-59
2021/12/09 12:54:28;;;;;;;;;;;;;;;5.08;71.83;100232.19;5029998;28;20371;-60
2021/12/09 12:56:56;;;;;;;;;;;;;;;5.11;72.09;100229.00;5030660;28;20296;-59
2021/12/09 12:59:24;;;;;;;;;;;;;;;5.14;71.72;100227.66;5031315;28;20052;-59
2021/12/09 13:02:16;;;;;;;;;;;;;;;5.17;71.79;100229.97;5029510;28;19921;-59
2021/12/09 13:04:51;;;;;;;;;;;;;;;5.17;71.82;100233.56;5026139;28;19925;-59
2021/12/09 13:07:38;;;;;;;;;;;;;;;5.18;71.92;100231.63;5031718;28;19921;-59
2021/12/09 13:10:28;;;;;;;;;;;;;;;5.18;71.54;100232.47;5030114;28;20009;-60
2021/12/09 13:13:03;;;;;;;;;;;;;;;5.16;71.99;100229.13;5028221;28;19921;-59
2021/12/09 13:15:37;;;;;;;;;;;;;;;5.18;72.23;100245.38;5031263;28;20004;-59
2021/12/09 13:18:06;;;;;;;;;;;;;;;5.20;71.83;100228.66;5035318;28;20007;-59
2021/12/09 13:20:36;;;;;;;;;;;;;;;5.22;71.79;100223.75;5033366;28;19921;-60
2021/12/09 13:23:23;;;;;;;;;;;;;;;5.23;71.86;100223.53;5029010;28;20392;-60
2021/12/09 13:26:12;;;;;;;;;;;;;;;5.24;71.84;100222.47;5032772;28;19921;-59
2021/12/09 13:28:44;;;;;;;;;;;;;;;5.29;71.55;100224.50;5034977;28;19932;-59
2021/12/09 13:31:31;;;;;;;;;;;;;;;5.29;71.70;100221.75;5035202;28;19928;-59